createdAt,value
2022-09-28T00:00:18.493Z,82.491667
2022-09-28T00:05:18.619Z,82.729167
2022-09-28T00:10:18.411Z,83.083333
2022-09-28T00:15:18.395Z,83.104167
2022-09-28T00:20:18.267Z,83.000000
2022-09-28T00:25:18.759Z,83.066667
2022-09-28T00:30:18.833Z,83.058333
2022-09-28T00:35:18.351Z,82.945833
2022-09-28T00:40:18.444Z,83.141667
2022-09-28T00:45:18.582Z,82.933333
2022-09-28T00:50:18.808Z,82.966667
2022-09-28T00:55:18.630Z,83.404167
2022-09-28T01:00:18.728Z,83.558333
2022-09-28T01:05:18.589Z,83.712500
2022-09-28T01:10:18.277Z,83.920833
2022-09-28T01:15:18.323Z,83.866667
2022-09-28T01:20:18.453Z,83.900000
2022-09-28T01:25:18.469Z,84.133333
2022-09-28T01:30:18.317Z,84.400000
2022-09-28T01:35:18.480Z,84.425000
2022-09-28T01:40:18.463Z,84.533333
2022-09-28T01:45:18.614Z,84.500000
2022-09-28T01:50:18.484Z,84.412500
2022-09-28T01:55:18.501Z,84.400000
2022-09-28T02:00:18.292Z,84.354167
2022-09-28T02:05:18.406Z,84.304167
2022-09-28T02:10:18.263Z,84.191667
2022-09-28T02:15:18.316Z,84.012000
2022-09-28T02:20:18.295Z,83.932000
2022-09-28T02:25:18.225Z,83.795833
2022-09-28T02:30:18.349Z,83.300000
2022-09-28T02:35:18.237Z,83.291667
2022-09-28T02:40:18.428Z,83.312500
2022-09-28T02:45:18.281Z,83.100000
2022-09-28T02:50:18.673Z,83.045833
2022-09-28T02:55:18.921Z,83.325000
2022-09-28T03:00:18.346Z,83.900000
2022-09-28T03:05:18.310Z,84.444000
2022-09-28T03:10:18.551Z,85.166667
2022-09-28T03:15:18.612Z,85.641667
2022-09-28T03:20:18.821Z,85.883333
2022-09-28T03:25:18.261Z,86.554167
2022-09-28T03:30:18.281Z,87.416000
2022-09-28T03:35:18.509Z,88.433333
2022-09-28T03:40:18.360Z,89.170833
2022-09-28T03:45:18.259Z,89.125000
2022-09-28T03:50:18.259Z,89.125000
2022-09-28T03:55:18.748Z,89.550000
2022-09-28T04:00:18.460Z,89.579167
2022-09-28T04:05:18.230Z,90.025000
2022-09-28T04:10:18.215Z,90.350000
2022-09-28T04:15:18.352Z,90.408333
2022-09-28T04:20:18.216Z,90.462500
2022-09-28T04:25:18.207Z,90.537500
2022-09-28T04:30:18.284Z,90.550000
2022-09-28T04:35:18.604Z,90.683333
2022-09-28T04:40:18.332Z,90.737500
2022-09-28T04:45:18.283Z,90.850000
2022-09-28T04:50:18.241Z,91.045833
2022-09-28T04:55:18.779Z,91.050000
2022-09-28T05:00:18.335Z,91.220833
2022-09-28T05:05:18.168Z,91.320833
2022-09-28T05:10:18.241Z,91.437500
2022-09-28T05:15:18.214Z,91.500000
2022-09-28T05:20:18.224Z,91.600000
2022-09-28T05:25:18.269Z,91.612500
2022-09-28T05:30:18.480Z,91.654167
2022-09-28T05:35:18.785Z,91.675000
2022-09-28T05:40:18.669Z,91.954167
2022-09-28T05:45:18.278Z,91.970833
2022-09-28T05:50:18.294Z,91.912500
2022-09-28T05:55:18.749Z,91.900000
2022-09-28T06:00:18.411Z,91.912500
2022-09-28T06:05:18.209Z,92.025000
2022-09-28T06:10:18.288Z,92.158333
2022-09-28T06:15:18.264Z,92.170833
2022-09-28T06:20:18.190Z,92.204167
2022-09-28T06:25:18.384Z,92.366667
2022-09-28T06:30:18.218Z,92.500000
2022-09-28T06:35:18.184Z,92.508333
2022-09-28T06:40:18.337Z,92.458333
2022-09-28T06:45:18.141Z,92.383333
2022-09-28T06:50:18.129Z,92.283333
2022-09-28T06:55:18.661Z,92.245833
2022-09-28T07:00:18.487Z,92.283333
2022-09-28T07:05:18.119Z,92.287500
2022-09-28T07:10:18.189Z,92.091667
2022-09-28T07:15:18.225Z,91.895833
2022-09-28T07:20:19.604Z,91.816667
2022-09-28T07:25:18.178Z,91.880000
2022-09-28T07:30:18.331Z,91.770833
2022-09-28T07:35:18.210Z,91.429167
2022-09-28T07:40:18.312Z,90.925000
2022-09-28T07:45:18.647Z,90.241667
2022-09-28T07:50:18.214Z,89.112500
2022-09-28T07:55:18.572Z,88.358333
2022-09-28T08:00:18.648Z,87.929167
2022-09-28T08:05:18.730Z,86.637500
2022-09-28T08:10:18.205Z,86.400000
2022-09-28T08:15:18.372Z,85.916667
2022-09-28T08:20:18.485Z,85.833333
2022-09-28T08:25:18.148Z,86.495833
2022-09-28T08:30:18.229Z,87.420833
2022-09-28T08:35:18.050Z,87.825000
2022-09-28T08:40:18.245Z,87.766667
2022-09-28T08:45:18.090Z,87.654167
2022-09-28T08:50:18.315Z,87.380000
2022-09-28T08:55:18.250Z,87.370833
2022-09-28T09:00:18.199Z,87.350000
2022-09-28T09:05:18.362Z,87.412000
2022-09-28T09:10:18.318Z,87.832000
2022-09-28T09:15:18.181Z,88.437500
2022-09-28T09:20:18.152Z,88.633333
2022-09-28T09:25:18.169Z,88.487500
2022-09-28T09:30:23.933Z,88.329167
2022-09-28T09:35:19.442Z,88.633333
2022-09-28T09:40:18.227Z,88.370833
2022-09-28T09:45:18.521Z,88.787500
2022-09-28T09:50:18.244Z,89.400000
2022-09-28T09:55:18.336Z,90.062500
2022-09-28T10:00:18.639Z,90.325000
2022-09-28T10:05:18.424Z,90.520833
2022-09-28T10:10:18.391Z,90.516667
2022-09-28T10:15:18.239Z,90.520833
2022-09-28T10:20:18.319Z,90.895833
2022-09-28T10:25:18.147Z,90.984000
2022-09-28T10:30:18.183Z,90.620833
2022-09-28T10:35:18.195Z,90.462500
2022-09-28T10:40:18.363Z,90.029167
2022-09-28T10:45:18.573Z,89.875000
2022-09-28T10:50:18.273Z,89.666667
2022-09-28T10:55:18.141Z,89.462500
2022-09-28T11:00:18.134Z,89.583333
2022-09-28T11:05:18.162Z,88.858333
2022-09-28T11:10:18.213Z,88.400000
2022-09-28T11:15:18.104Z,87.375000
2022-09-28T11:20:18.161Z,87.016667
2022-09-28T11:25:18.099Z,85.408333
2022-09-28T11:30:18.420Z,85.141667
2022-09-28T11:35:18.192Z,86.316667
2022-09-28T11:40:18.303Z,85.916667
2022-09-28T11:45:18.065Z,85.466667
2022-09-28T11:50:23.002Z,86.708333
2022-09-28T11:55:18.739Z,85.808333
2022-09-28T12:00:18.277Z,86.508333
2022-09-28T12:05:20.937Z,87.333333
2022-09-28T12:10:18.100Z,86.858333
2022-09-28T12:15:18.039Z,85.620833
2022-09-28T12:20:18.354Z,84.691667
2022-09-28T12:25:18.029Z,83.741667
2022-09-28T12:30:18.323Z,84.804167
2022-09-28T12:35:18.674Z,85.191667
2022-09-28T12:40:18.322Z,85.800000
2022-09-28T12:45:18.092Z,85.316667
2022-09-28T12:50:37.951Z,85.533333
2022-09-28T12:55:18.308Z,86.112500
2022-09-28T13:00:18.193Z,86.400000
2022-09-28T13:05:18.055Z,87.025000
2022-09-28T13:10:18.081Z,85.879167
2022-09-28T13:15:18.061Z,86.033333
2022-09-28T13:20:18.072Z,86.016000
2022-09-28T13:25:18.003Z,86.533333
2022-09-28T13:30:18.084Z,87.295833
2022-09-28T13:35:18.005Z,87.879167
2022-09-28T13:40:18.707Z,88.341667
2022-09-28T13:45:18.265Z,88.533333
2022-09-28T13:50:18.079Z,88.900000
2022-09-28T13:55:18.365Z,88.495833
2022-09-28T14:00:18.484Z,87.987500
2022-09-28T14:05:18.224Z,87.500000
2022-09-28T14:10:18.260Z,87.300000
2022-09-28T14:15:18.246Z,85.847059
2022-09-28T14:20:18.075Z,84.725000
2022-09-28T14:25:18.075Z,84.540000
2022-09-28T14:30:17.991Z,82.879167
2022-09-28T14:35:19.019Z,83.187500
2022-09-28T14:40:18.060Z,83.991667
2022-09-28T14:45:18.339Z,84.516667
2022-09-28T14:50:18.208Z,84.862500
2022-09-28T14:55:18.317Z,84.841667
2022-09-28T15:00:18.351Z,84.708333
2022-09-28T15:05:18.144Z,84.983333
2022-09-28T15:10:17.987Z,85.050000
2022-09-28T15:15:18.221Z,84.741667
2022-09-28T15:20:18.018Z,84.533333
2022-09-28T15:25:18.905Z,84.016667
2022-09-28T15:30:18.161Z,83.808333
2022-09-28T15:35:18.168Z,84.541667
2022-09-28T15:40:18.207Z,84.995833
2022-09-28T15:45:18.435Z,85.154167
2022-09-28T15:50:18.254Z,85.300000
2022-09-28T15:55:18.605Z,85.154167
2022-09-28T16:00:18.356Z,85.384000
2022-09-28T16:05:17.986Z,85.229167
2022-09-28T16:10:17.976Z,85.100000
2022-09-28T16:15:18.233Z,84.433333
2022-09-28T16:20:18.000Z,84.200000
2022-09-28T16:25:18.009Z,84.508333
2022-09-28T16:30:18.273Z,85.520833
2022-09-28T16:35:18.178Z,86.520833
2022-09-28T16:40:18.114Z,87.300000
2022-09-28T16:45:17.964Z,87.875000
2022-09-28T16:50:18.062Z,88.620000
2022-09-28T16:55:53.783Z,89.075000
2022-09-28T17:00:18.320Z,89.316667
2022-09-28T17:05:18.288Z,89.650000
2022-09-28T17:10:18.063Z,89.933333
2022-09-28T17:15:18.023Z,89.933333
2022-09-28T17:20:18.373Z,90.183333
2022-09-28T17:25:18.486Z,90.245833
2022-09-28T17:30:20.232Z,90.379167
2022-09-28T17:35:25.972Z,90.525000
2022-09-28T17:40:18.121Z,90.312500
2022-09-28T17:45:18.646Z,90.145833
2022-09-28T17:50:18.684Z,90.266667
2022-09-28T17:55:18.872Z,90.262500
2022-09-28T18:00:18.055Z,90.525000
2022-09-28T18:05:17.960Z,90.508333
2022-09-28T18:10:18.113Z,90.762500
2022-09-28T18:15:17.980Z,91.020833
2022-09-28T18:20:18.039Z,90.975000
2022-09-28T18:25:18.400Z,90.933333
2022-09-28T18:30:18.257Z,91.104167
2022-09-28T18:35:22.602Z,91.208333
2022-09-28T18:40:18.137Z,91.308333
2022-09-28T18:45:18.029Z,91.279167
2022-09-28T18:50:18.251Z,91.400000
2022-09-28T18:55:18.109Z,91.541667
2022-09-28T19:00:18.089Z,91.400000
2022-09-28T19:05:17.974Z,91.370833
2022-09-28T19:10:17.933Z,91.833333
2022-09-28T19:15:18.161Z,91.933333
2022-09-28T19:20:18.261Z,91.954167
2022-09-28T19:25:18.040Z,91.950000
2022-09-28T19:30:18.207Z,92.083333
2022-09-28T19:35:17.970Z,91.883333
2022-09-28T19:40:18.096Z,91.762500
2022-09-28T19:45:17.942Z,91.950000
2022-09-28T19:50:18.374Z,91.758333
2022-09-28T19:55:18.624Z,91.983333
2022-09-28T20:00:17.999Z,91.925000
2022-09-28T20:05:18.198Z,91.916667
2022-09-28T20:10:18.021Z,91.916667
2022-09-28T20:15:18.403Z,91.995833
2022-09-28T20:20:18.018Z,92.062500
2022-09-28T20:25:17.953Z,92.175000
2022-09-28T20:30:17.960Z,92.200000
2022-09-28T20:35:30.442Z,92.287500
2022-09-28T20:40:18.187Z,92.192000
2022-09-28T20:45:18.204Z,92.145833
2022-09-28T20:50:18.053Z,92.229167
2022-09-28T20:55:18.691Z,92.258333
2022-09-28T21:00:18.022Z,92.220833
2022-09-28T21:05:18.020Z,92.362500
2022-09-28T21:10:18.257Z,92.600000
2022-09-28T21:15:18.055Z,92.566667
2022-09-28T21:20:18.112Z,92.683333
2022-09-28T21:25:18.117Z,92.687500
2022-09-28T21:30:18.119Z,92.325000
2022-09-28T21:35:17.924Z,92.450000
2022-09-28T21:40:18.137Z,92.520833
2022-09-28T21:45:18.017Z,92.404167
2022-09-28T21:50:17.956Z,92.700000
2022-09-28T21:55:18.419Z,92.700000
2022-09-28T22:00:18.079Z,92.512500
2022-09-28T22:05:18.383Z,92.633333
2022-09-28T22:10:18.566Z,92.541667
2022-09-28T22:15:18.026Z,92.504167
2022-09-28T22:20:18.216Z,92.566667
2022-09-28T22:25:17.909Z,92.700000
2022-09-28T22:30:17.890Z,92.745833
2022-09-28T22:35:17.971Z,92.737500
2022-09-28T22:40:18.180Z,92.550000
2022-09-28T22:45:17.922Z,92.666667
2022-09-28T22:50:17.908Z,92.670833
2022-09-28T22:55:18.193Z,92.583333
2022-09-28T23:00:18.029Z,92.591667
2022-09-28T23:05:18.392Z,92.745833
2022-09-28T23:10:18.281Z,92.800000
2022-09-28T23:15:17.975Z,92.791667
2022-09-28T23:20:18.192Z,93.129167
2022-09-28T23:25:18.060Z,93.200000
2022-09-28T23:30:17.925Z,93.083333
2022-09-28T23:35:18.099Z,93.150000
2022-09-28T23:40:17.941Z,93.029167
2022-09-28T23:45:18.037Z,93.008333
2022-09-28T23:50:17.997Z,92.866667
2022-09-28T23:55:18.219Z,93.156000
